Terminal Aerodrome Forecast
Issued by NWS

Home | Current Version | Previous Version | Text Only | Print | Product List | Glossary On
Versions: 1 2 3 4 5 6 7 8 9 10 11 12 13 14 15
000
FTUS41 KBTV 302330
TAFSLK
TAF
KSLK 302330Z 3100/3124 24006KT P6SM SCT060
     FM310800 24004KT 4SM BR SCT020
     FM311200 25009G16KT P6SM SCT040
     FM312200 23006KT P6SM SCT050=

USA.gov is the U.S. government's official web portal to all federal, state and local government web resources and services.